createdAt,value
2017-10-04T00:03:44.399Z,74.90
2017-10-04T00:08:46.950Z,74.90
2017-10-04T00:13:49.515Z,74.70
2017-10-04T00:18:52.066Z,74.80
2017-10-04T00:23:54.646Z,74.60
2017-10-04T00:28:57.996Z,74.60
2017-10-04T00:34:00.556Z,74.60
2017-10-04T00:39:03.131Z,74.40
2017-10-04T00:44:05.669Z,74.60
2017-10-04T00:49:08.988Z,74.80
2017-10-04T00:54:12.331Z,74.50
2017-10-04T00:59:14.916Z,74.50
2017-10-04T01:04:17.468Z,74.80
2017-10-04T01:09:20.035Z,75.10
2017-10-04T01:14:22.561Z,75.20
2017-10-04T01:19:25.145Z,75.20
2017-10-04T01:24:27.687Z,75.40
2017-10-04T01:29:30.256Z,75.10
2017-10-04T01:34:32.820Z,75.20
2017-10-04T01:39:35.364Z,75.30
2017-10-04T01:44:37.918Z,75.40
2017-10-04T01:49:40.485Z,75.60
2017-10-04T01:54:43.059Z,76.90
2017-10-04T01:59:45.622Z,76.60
2017-10-04T02:04:48.194Z,76.50
2017-10-04T02:09:50.744Z,76.60
2017-10-04T02:14:53.291Z,76.80
2017-10-04T02:19:55.853Z,76.80
2017-10-04T02:24:58.421Z,77.00
2017-10-04T02:30:00.986Z,77.20
2017-10-04T02:35:03.548Z,76.90
2017-10-04T02:40:06.145Z,76.80
2017-10-04T02:45:08.689Z,76.90
2017-10-04T02:50:11.242Z,76.40
2017-10-04T02:55:13.790Z,76.50
2017-10-04T03:00:16.390Z,76.90
2017-10-04T03:05:18.936Z,76.90
2017-10-04T03:10:21.494Z,77.00
2017-10-04T03:15:24.070Z,77.10
2017-10-04T03:20:26.606Z,76.90
2017-10-04T03:25:29.183Z,77.10
2017-10-04T03:30:31.725Z,77.30
2017-10-04T03:35:34.304Z,77.10
2017-10-04T03:40:36.866Z,76.80
2017-10-04T03:45:40.242Z,76.70
2017-10-04T03:50:42.803Z,76.60
2017-10-04T03:55:45.396Z,76.60
2017-10-04T04:00:47.930Z,76.60
2017-10-04T04:05:50.486Z,76.80
2017-10-04T04:10:53.056Z,76.70
2017-10-04T04:15:56.394Z,76.80
2017-10-04T04:20:58.982Z,76.80
2017-10-04T04:26:02.283Z,76.80
2017-10-04T04:31:04.838Z,76.80
2017-10-04T04:36:07.394Z,76.70
2017-10-04T04:41:09.975Z,76.80
2017-10-04T04:46:12.566Z,76.60
2017-10-04T04:51:15.160Z,76.70
2017-10-04T04:56:17.753Z,76.70
2017-10-04T05:01:20.310Z,76.60
2017-10-04T05:06:22.888Z,76.50
2017-10-04T05:11:25.439Z,76.30
2017-10-04T05:16:28.046Z,76.20
2017-10-04T05:21:30.591Z,76.20
2017-10-04T05:26:33.190Z,76.20
2017-10-04T05:31:35.765Z,76.20
2017-10-04T05:36:38.342Z,76.10
2017-10-04T05:41:40.930Z,76.90
2017-10-04T05:46:43.561Z,76.20
2017-10-04T05:51:46.106Z,76.50
2017-10-04T05:56:48.702Z,76.60
2017-10-04T06:01:51.270Z,76.60
2017-10-04T06:06:54.617Z,77.00
2017-10-04T06:11:57.244Z,77.10
2017-10-04T06:16:59.807Z,76.90
2017-10-04T06:22:02.389Z,77.10
2017-10-04T06:27:05.174Z,77.30
2017-10-04T06:32:07.780Z,77.30
2017-10-04T06:37:11.148Z,77.10
2017-10-04T06:42:13.765Z,77.10
2017-10-04T06:47:16.328Z,77.30
2017-10-04T06:52:18.911Z,77.60
2017-10-04T06:57:21.502Z,77.40
2017-10-04T07:02:24.111Z,77.60
2017-10-04T07:07:26.686Z,77.70
2017-10-04T07:12:29.275Z,77.90
2017-10-04T07:17:31.880Z,78.00
2017-10-04T07:22:34.457Z,78.20
2017-10-04T07:27:37.055Z,78.30
2017-10-04T07:32:39.600Z,78.20
2017-10-04T07:37:42.170Z,77.90
2017-10-04T07:42:44.764Z,78.00
2017-10-04T07:47:47.373Z,77.10
2017-10-04T07:52:49.959Z,77.60
2017-10-04T07:57:52.555Z,77.20
2017-10-04T08:02:55.172Z,77.10
2017-10-04T08:07:57.771Z,77.10
2017-10-04T08:13:00.357Z,76.70
2017-10-04T08:18:02.958Z,76.90
2017-10-04T08:23:05.571Z,76.60
2017-10-04T08:28:08.963Z,76.50
2017-10-04T08:33:11.555Z,76.50
2017-10-04T08:38:14.118Z,76.80
2017-10-04T08:43:16.716Z,76.50
2017-10-04T08:48:32.058Z,77.10
2017-10-04T08:53:34.652Z,77.00
2017-10-04T08:58:37.294Z,76.70
2017-10-04T09:03:40.640Z,76.30
2017-10-04T09:08:43.197Z,76.20
2017-10-04T09:13:45.851Z,76.10
2017-10-04T09:18:48.462Z,75.90
2017-10-04T09:23:51.013Z,75.10
2017-10-04T09:28:53.621Z,74.60
2017-10-04T09:33:56.181Z,72.80
2017-10-04T09:38:58.801Z,72.70
2017-10-04T09:44:01.367Z,72.40
2017-10-04T09:49:03.977Z,72.80
2017-10-04T09:54:06.550Z,71.60
2017-10-04T09:59:09.130Z,70.40
2017-10-04T10:04:11.717Z,70.40
2017-10-04T10:09:14.299Z,70.80
2017-10-04T10:14:16.933Z,69.10
2017-10-04T10:19:19.500Z,67.50
2017-10-04T10:24:22.082Z,68.20
2017-10-04T10:29:24.628Z,67.00
2017-10-04T10:34:27.194Z,67.30
2017-10-04T10:39:30.496Z,65.30
2017-10-04T10:44:33.056Z,65.30
2017-10-04T10:49:35.604Z,65.10
2017-10-04T10:54:38.200Z,64.20
2017-10-04T10:59:40.766Z,65.90
2017-10-04T11:04:43.311Z,65.20
2017-10-04T11:09:45.888Z,63.20
2017-10-04T11:14:48.538Z,64.20
2017-10-04T11:19:51.114Z,64.60
2017-10-04T11:24:53.690Z,62.00
2017-10-04T11:29:56.285Z,65.00
2017-10-04T11:34:59.615Z,58.50
2017-10-04T11:40:02.979Z,59.70
2017-10-04T11:45:05.543Z,59.60
2017-10-04T11:50:08.127Z,59.30
2017-10-04T11:55:10.706Z,58.30
2017-10-04T12:00:13.298Z,61.80
2017-10-04T12:05:15.855Z,63.60
2017-10-04T12:10:18.443Z,63.00
2017-10-04T12:15:21.024Z,59.30
2017-10-04T12:20:23.586Z,56.80
2017-10-04T12:25:26.127Z,60.60
2017-10-04T12:30:28.704Z,60.00
2017-10-04T12:35:31.301Z,60.60
2017-10-04T12:40:33.856Z,61.60
2017-10-04T12:45:36.390Z,56.80
2017-10-04T12:50:38.944Z,58.60
2017-10-04T12:55:41.498Z,60.30
2017-10-04T13:00:44.052Z,59.90
2017-10-04T13:05:46.731Z,61.80
2017-10-04T13:10:49.347Z,56.40
2017-10-04T13:15:52.259Z,58.70
2017-10-04T13:20:54.844Z,57.20
2017-10-04T13:25:57.409Z,56.20
2017-10-04T13:30:59.988Z,57.90
2017-10-04T13:36:02.568Z,58.60
2017-10-04T13:41:05.140Z,59.10
2017-10-04T13:46:07.729Z,57.70
2017-10-04T13:51:10.319Z,57.70
2017-10-04T13:56:12.882Z,58.20
2017-10-04T14:01:15.444Z,58.40
2017-10-04T14:06:18.041Z,58.80
2017-10-04T14:11:20.615Z,59.30
2017-10-04T14:16:23.176Z,58.70
2017-10-04T14:21:25.792Z,58.80
2017-10-04T14:26:28.347Z,59.50
2017-10-04T14:31:30.967Z,58.40
2017-10-04T14:36:33.550Z,59.60
2017-10-04T14:41:36.151Z,56.40
2017-10-04T14:46:38.725Z,58.60
2017-10-04T14:51:41.319Z,58.50
2017-10-04T14:56:43.885Z,57.90
2017-10-04T15:01:47.331Z,58.20
2017-10-04T15:06:49.952Z,58.20
2017-10-04T15:11:52.526Z,57.40
2017-10-04T15:16:55.132Z,58.70
2017-10-04T15:21:57.684Z,57.80
2017-10-04T15:27:00.243Z,58.20
2017-10-04T15:32:02.816Z,57.90
2017-10-04T15:37:05.389Z,55.80
2017-10-04T15:42:08.005Z,57.60
2017-10-04T15:47:10.611Z,58.10
2017-10-04T15:52:13.944Z,57.80
2017-10-04T15:57:16.524Z,57.80
2017-10-04T16:02:19.989Z,58.20
2017-10-04T16:07:23.338Z,58.20
2017-10-04T16:12:25.974Z,57.90
2017-10-04T16:17:29.335Z,58.40
2017-10-04T16:22:31.908Z,58.40
2017-10-04T16:27:34.469Z,58.70
2017-10-04T16:32:37.250Z,58.70
2017-10-04T16:37:39.858Z,58.70
2017-10-04T16:42:42.423Z,58.40
2017-10-04T16:47:45.089Z,58.60
2017-10-04T16:52:48.483Z,59.30
2017-10-04T16:57:52.472Z,59.70
2017-10-04T17:02:55.105Z,59.70
2017-10-04T17:07:57.835Z,59.80
2017-10-04T17:13:00.519Z,59.90
2017-10-04T17:18:03.175Z,60.00
2017-10-04T17:23:05.805Z,60.10
2017-10-04T17:28:08.466Z,60.30
2017-10-04T17:33:11.103Z,60.50
2017-10-04T17:38:13.724Z,60.70
2017-10-04T17:43:16.345Z,61.00
2017-10-04T17:48:18.963Z,61.80
2017-10-04T17:53:21.572Z,61.30
2017-10-04T17:58:24.128Z,61.50
2017-10-04T18:03:27.492Z,62.10
2017-10-04T18:08:30.100Z,62.10
2017-10-04T18:13:32.706Z,62.50
2017-10-04T18:18:35.306Z,62.60
2017-10-04T18:23:37.883Z,62.90
2017-10-04T18:28:40.475Z,63.30
2017-10-04T18:33:43.036Z,63.20
2017-10-04T18:38:45.619Z,63.60
2017-10-04T18:43:48.208Z,63.60
2017-10-04T18:48:50.831Z,64.00
2017-10-04T18:53:53.475Z,63.90
2017-10-04T18:58:56.126Z,64.30
2017-10-04T19:03:59.465Z,64.50
2017-10-04T19:09:02.922Z,64.70
2017-10-04T19:14:05.579Z,64.70
2017-10-04T19:19:08.153Z,64.60
2017-10-04T19:24:10.820Z,64.90
2017-10-04T19:29:13.410Z,65.20
2017-10-04T19:34:16.023Z,65.00
2017-10-04T19:39:18.664Z,65.30
2017-10-04T19:44:21.303Z,65.40
2017-10-04T19:49:24.618Z,65.50
2017-10-04T19:54:27.274Z,65.50
2017-10-04T19:59:30.116Z,65.50
2017-10-04T20:04:32.770Z,65.60
2017-10-04T20:09:35.327Z,65.70
2017-10-04T20:14:38.017Z,65.70
2017-10-04T20:19:40.636Z,65.60
2017-10-04T20:24:43.206Z,65.40
2017-10-04T20:29:45.811Z,65.20
2017-10-04T20:34:49.151Z,64.90
2017-10-04T20:39:51.802Z,65.00
2017-10-04T20:44:55.155Z,65.30
2017-10-04T20:49:58.471Z,65.70
2017-10-04T20:55:01.022Z,65.60
2017-10-04T21:00:03.600Z,65.70
2017-10-04T21:05:06.179Z,65.80
2017-10-04T21:10:08.751Z,66.10
2017-10-04T21:15:12.111Z,66.20
2017-10-04T21:20:14.687Z,66.10
2017-10-04T21:25:17.262Z,66.20
2017-10-04T21:30:19.820Z,66.40
2017-10-04T21:35:22.415Z,66.20
2017-10-04T21:40:25.019Z,66.20
2017-10-04T21:45:27.614Z,66.60
2017-10-04T21:50:30.167Z,66.40
2017-10-04T21:55:32.746Z,66.20
2017-10-04T22:00:35.307Z,66.20
2017-10-04T22:05:37.910Z,67.10
2017-10-04T22:10:54.686Z,66.50
2017-10-04T22:15:57.993Z,67.50
2017-10-04T22:21:00.594Z,66.70
2017-10-04T22:26:03.923Z,66.80
2017-10-04T22:31:06.491Z,67.10
2017-10-04T22:36:09.062Z,66.90
2017-10-04T22:41:11.615Z,67.10
2017-10-04T22:46:14.182Z,67.30
2017-10-04T22:51:16.747Z,67.30
2017-10-04T22:56:19.327Z,67.10
2017-10-04T23:01:21.894Z,67.50
2017-10-04T23:06:24.462Z,67.50
2017-10-04T23:11:27.008Z,66.80
2017-10-04T23:16:30.322Z,67.40
2017-10-04T23:21:33.642Z,67.50
2017-10-04T23:26:36.211Z,67.50
2017-10-04T23:31:38.804Z,67.30
2017-10-04T23:36:41.376Z,67.50
2017-10-04T23:41:43.947Z,67.80
2017-10-04T23:46:46.516Z,67.60
2017-10-04T23:51:49.091Z,67.60
2017-10-04T23:56:51.679Z,67.60
